Etusivu
METAR-TAF:

METAR-TAF

Lentoasemat :

Växjö, Ruotsi

Leveyspiiri: 56-51N, Pituuspiiri: 014-50E, korkeus merenpinnasta: 199 m

Tämänhetkinen sää

Tämä raportti tehtiin 22 minuuttia sitten, kello 17.50 UTC
Tuuli 8 kn lännestä
Lämpötila 12°C
Kosteus 54%
Ilmanpaine 1002 hPa
Näkyvyys 10 km tai enemmän
Muutamia pilviä 4100 ft:n korkeudessa

METAR: ESMX 261750Z 26008KT 9999 FEW041 12/03 Q1002

Aika: 20:12 (18:12 UTC)

Sääennuste

Tämä raportti tehtiin 42 minuuttia sitten, kello 17.30 UTC
Ennuste voimassa 26. päivästä klo 18 UTC - 26. päivään klo 21 UTC
Tuuli 8 kn lännestä
Näkyvyys 10 km tai enemmän
Muutamia pilviä 4000 ft:n korkeudessa

TAF: ESMX 261730Z 2618/2621 26008KT 9999 FEW040

Säähavainnot ja -ennusteet yli 4000 lentoasemalta (METAR- ja TAF-raportit).

Käytössä olevat sääasemat on merkitty karttaan keltaisilla ja punaisilla pisteillä.

Aseta hiiri pisteen päälle nähdäksesi sääaseman nimen.

Klikkaa sitten nähdäksesi säähavainnot ja -ennusteet.

Kartan vaihtaminen: klikkaa mustalla rastilla varustettuja vihreitä pisteitä, niin voit zoomata sisään; viivalla varustettua vihreää pistettä, niin voit zoomata ulos tai vihreitä nuolia, niin pääset viereisille kartoille.


METAR-TAF: